<?xml version="1.0" encoding="UTF-8" standalone="no" ?>
<gpx xmlns="http://www.topografix.com/GPX/1/1" xmlns:xsi="http://www.w3.org/2001/XMLSchema-instance" xsi:schemaLocation="http://www.topografix.com/GPX/1/1 http://www.topografix.com/GPX/1/1/gpx.xsd" version="1.1" creator="VisuGPX - https://www.visugpx.com">
  <metadata>
    <name>Boulogne sur vie</name>
    <desc><![CDATA[randonnée vtt
]]></desc>
  </metadata>
  <trk>
    <name><![CDATA[2015-11-02 13:41]]></name>
    <desc><![CDATA[<h1>OruxMaps</h1><br /><hr align="center" width="480" style="height: 2px; width: 517px"/><h2>Nom: 2015-11-02 13:41</h2><br /><p>Temps de départ: 11/02/2015 13:41</p><p>Temps d'arrivée: 11/02/2015 14:48</p><p>Distance: 11,9km (01:06)</p><p>Temps déplacement: 00:53</p><p>Vitesse moyenne: 10,7km/h</p><p>Vitesse moyenne: 13,3km/h</p><p>Vitess Max.: 42,1km/h</p><p>Altitude minimale: 29m</p><p>Altitude maximale: 83m</p><p>Vitesse d'élévation: 472,3m/h</p><p>Vitesse de descente: -584m/h</p><p>Gain Altitude: 244m</p><p>Perte Altitude: -251m</p><p>Temps d'élévation: 00:31</p><p>Temps de descente: 00:25</p><hr align="center" width="480" style="height: 2px; width: 517px"/>]]></desc>
    <trkseg>
      <trkpt lat="46.84541" lon="-1.4893">
        <ele>48.21</ele>
        <time>2015-11-02T12:41:45Z</time>
      </trkpt>
      <trkpt lat="46.84556" lon="-1.48913">
        <ele>42.28</ele>
        <time>2015-11-02T12:46:34Z</time>
      </trkpt>
      <trkpt lat="46.84571" lon="-1.48898">
        <ele>44.17</ele>
        <time>2015-11-02T12:46:38Z</time>
      </trkpt>
      <trkpt lat="46.84587" lon="-1.48878">
        <ele>46.84</ele>
        <time>2015-11-02T12:46:43Z</time>
      </trkpt>
      <trkpt lat="46.84606" lon="-1.48858">
        <ele>46.08</ele>
        <time>2015-11-02T12:46:47Z</time>
      </trkpt>
      <trkpt lat="46.84629" lon="-1.48845">
        <ele>44.9</ele>
        <time>2015-11-02T12:46:51Z</time>
      </trkpt>
      <trkpt lat="46.84653" lon="-1.48842">
        <ele>44.39</ele>
        <time>2015-11-02T12:46:55Z</time>
      </trkpt>
      <trkpt lat="46.84671" lon="-1.48837">
        <ele>46.05</ele>
        <time>2015-11-02T12:46:59Z</time>
      </trkpt>
      <trkpt lat="46.8469" lon="-1.4883">
        <ele>45.59</ele>
        <time>2015-11-02T12:47:03Z</time>
      </trkpt>
      <trkpt lat="46.84711" lon="-1.4882">
        <ele>48.32</ele>
        <time>2015-11-02T12:47:08Z</time>
      </trkpt>
      <trkpt lat="46.84729" lon="-1.4881">
        <ele>47.92</ele>
        <time>2015-11-02T12:47:12Z</time>
      </trkpt>
      <trkpt lat="46.84743" lon="-1.48794">
        <ele>46.56</ele>
        <time>2015-11-02T12:47:24Z</time>
      </trkpt>
      <trkpt lat="46.84755" lon="-1.48771">
        <ele>42.18</ele>
        <time>2015-11-02T12:47:35Z</time>
      </trkpt>
      <trkpt lat="46.84772" lon="-1.48758">
        <ele>42.79</ele>
        <time>2015-11-02T12:47:39Z</time>
      </trkpt>
      <trkpt lat="46.84783" lon="-1.48733">
        <ele>43.14</ele>
        <time>2015-11-02T12:47:43Z</time>
      </trkpt>
      <trkpt lat="46.84785" lon="-1.48698">
        <ele>43.97</ele>
        <time>2015-11-02T12:47:47Z</time>
      </trkpt>
      <trkpt lat="46.84787" lon="-1.48669">
        <ele>45.15</ele>
        <time>2015-11-02T12:47:52Z</time>
      </trkpt>
      <trkpt lat="46.84774" lon="-1.48644">
        <ele>45.62</ele>
        <time>2015-11-02T12:47:58Z</time>
      </trkpt>
      <trkpt lat="46.84756" lon="-1.48623">
        <ele>43.76</ele>
        <time>2015-11-02T12:48:03Z</time>
      </trkpt>
      <trkpt lat="46.8474" lon="-1.48602">
        <ele>43.45</ele>
        <time>2015-11-02T12:48:07Z</time>
      </trkpt>
      <trkpt lat="46.84723" lon="-1.48582">
        <ele>46.3</ele>
        <time>2015-11-02T12:48:11Z</time>
      </trkpt>
      <trkpt lat="46.84709" lon="-1.48565">
        <ele>49.19</ele>
        <time>2015-11-02T12:48:14Z</time>
      </trkpt>
      <trkpt lat="46.84692" lon="-1.48547">
        <ele>50.85</ele>
        <time>2015-11-02T12:48:18Z</time>
      </trkpt>
      <trkpt lat="46.84676" lon="-1.48526">
        <ele>51.08</ele>
        <time>2015-11-02T12:48:22Z</time>
      </trkpt>
      <trkpt lat="46.8466" lon="-1.48505">
        <ele>52.9</ele>
        <time>2015-11-02T12:48:26Z</time>
      </trkpt>
      <trkpt lat="46.84641" lon="-1.48488">
        <ele>50.71</ele>
        <time>2015-11-02T12:48:30Z</time>
      </trkpt>
      <trkpt lat="46.84624" lon="-1.48467">
        <ele>50.07</ele>
        <time>2015-11-02T12:48:34Z</time>
      </trkpt>
      <trkpt lat="46.84606" lon="-1.48452">
        <ele>49.9</ele>
        <time>2015-11-02T12:48:38Z</time>
      </trkpt>
      <trkpt lat="46.84591" lon="-1.48436">
        <ele>51.64</ele>
        <time>2015-11-02T12:48:42Z</time>
      </trkpt>
      <trkpt lat="46.84573" lon="-1.48428">
        <ele>60.16</ele>
        <time>2015-11-02T12:49:39Z</time>
      </trkpt>
      <trkpt lat="46.84573" lon="-1.48455">
        <ele>38.96</ele>
        <time>2015-11-02T12:51:12Z</time>
      </trkpt>
      <trkpt lat="46.84586" lon="-1.48473">
        <ele>48.06</ele>
        <time>2015-11-02T12:51:23Z</time>
      </trkpt>
      <trkpt lat="46.84601" lon="-1.48489">
        <ele>48.62</ele>
        <time>2015-11-02T12:51:32Z</time>
      </trkpt>
      <trkpt lat="46.84584" lon="-1.4848">
        <ele>73.21</ele>
        <time>2015-11-02T12:52:42Z</time>
      </trkpt>
      <trkpt lat="46.84566" lon="-1.48478">
        <ele>73.21</ele>
        <time>2015-11-02T12:53:01Z</time>
      </trkpt>
      <trkpt lat="46.84552" lon="-1.4846">
        <ele>79.26</ele>
        <time>2015-11-02T12:53:19Z</time>
      </trkpt>
      <trkpt lat="46.84537" lon="-1.48442">
        <ele>83.12</ele>
        <time>2015-11-02T12:53:31Z</time>
      </trkpt>
      <trkpt lat="46.84525" lon="-1.48422">
        <ele>77.19</ele>
        <time>2015-11-02T12:53:44Z</time>
      </trkpt>
      <trkpt lat="46.84513" lon="-1.48399">
        <ele>82.57</ele>
        <time>2015-11-02T12:53:58Z</time>
      </trkpt>
      <trkpt lat="46.845" lon="-1.4838">
        <ele>79.32</ele>
        <time>2015-11-02T12:54:12Z</time>
      </trkpt>
      <trkpt lat="46.84482" lon="-1.48384">
        <ele>73.08</ele>
        <time>2015-11-02T12:54:33Z</time>
      </trkpt>
      <trkpt lat="46.84468" lon="-1.48367">
        <ele>72.7</ele>
        <time>2015-11-02T12:54:47Z</time>
      </trkpt>
      <trkpt lat="46.84459" lon="-1.48339">
        <ele>73.02</ele>
        <time>2015-11-02T12:54:53Z</time>
      </trkpt>
      <trkpt lat="46.84446" lon="-1.48312">
        <ele>71.28</ele>
        <time>2015-11-02T12:54:58Z</time>
      </trkpt>
      <trkpt lat="46.84437" lon="-1.48286">
        <ele>72.04</ele>
        <time>2015-11-02T12:55:02Z</time>
      </trkpt>
      <trkpt lat="46.84427" lon="-1.48263">
        <ele>71.46</ele>
        <time>2015-11-02T12:55:06Z</time>
      </trkpt>
      <trkpt lat="46.84417" lon="-1.4824">
        <ele>70.12</ele>
        <time>2015-11-02T12:55:10Z</time>
      </trkpt>
      <trkpt lat="46.84408" lon="-1.48217">
        <ele>69.81</ele>
        <time>2015-11-02T12:55:18Z</time>
      </trkpt>
      <trkpt lat="46.84406" lon="-1.48189">
        <ele>65.3</ele>
        <time>2015-11-02T12:55:49Z</time>
      </trkpt>
      <trkpt lat="46.844" lon="-1.48163">
        <ele>73.05</ele>
        <time>2015-11-02T12:56:02Z</time>
      </trkpt>
      <trkpt lat="46.8439" lon="-1.48141">
        <ele>74.01</ele>
        <time>2015-11-02T12:56:17Z</time>
      </trkpt>
      <trkpt lat="46.84375" lon="-1.48125">
        <ele>70.12</ele>
        <time>2015-11-02T12:56:32Z</time>
      </trkpt>
      <trkpt lat="46.84368" lon="-1.48099">
        <ele>66.56</ele>
        <time>2015-11-02T12:56:43Z</time>
      </trkpt>
      <trkpt lat="46.84366" lon="-1.48073">
        <ele>64.24</ele>
        <time>2015-11-02T12:57:04Z</time>
      </trkpt>
      <trkpt lat="46.84363" lon="-1.48045">
        <ele>65.57</ele>
        <time>2015-11-02T12:57:20Z</time>
      </trkpt>
      <trkpt lat="46.84361" lon="-1.48014">
        <ele>68.09</ele>
        <time>2015-11-02T12:57:29Z</time>
      </trkpt>
      <trkpt lat="46.84361" lon="-1.47987">
        <ele>69.11</ele>
        <time>2015-11-02T12:57:37Z</time>
      </trkpt>
      <trkpt lat="46.8436" lon="-1.47961">
        <ele>65.92</ele>
        <time>2015-11-02T12:57:57Z</time>
      </trkpt>
      <trkpt lat="46.84359" lon="-1.47933">
        <ele>67.52</ele>
        <time>2015-11-02T12:58:19Z</time>
      </trkpt>
      <trkpt lat="46.84368" lon="-1.47903">
        <ele>79.93</ele>
        <time>2015-11-02T12:58:32Z</time>
      </trkpt>
      <trkpt lat="46.84368" lon="-1.47875">
        <ele>77.16</ele>
        <time>2015-11-02T12:58:41Z</time>
      </trkpt>
      <trkpt lat="46.84355" lon="-1.47855">
        <ele>68.69</ele>
        <time>2015-11-02T12:58:50Z</time>
      </trkpt>
      <trkpt lat="46.84355" lon="-1.47829">
        <ele>71.4</ele>
        <time>2015-11-02T12:59:14Z</time>
      </trkpt>
      <trkpt lat="46.84362" lon="-1.47804">
        <ele>72.73</ele>
        <time>2015-11-02T12:59:31Z</time>
      </trkpt>
      <trkpt lat="46.84369" lon="-1.4778">
        <ele>80.29</ele>
        <time>2015-11-02T12:59:53Z</time>
      </trkpt>
      <trkpt lat="46.84376" lon="-1.47754">
        <ele>69.98</ele>
        <time>2015-11-02T13:00:27Z</time>
      </trkpt>
      <trkpt lat="46.8438" lon="-1.47727">
        <ele>66.52</ele>
        <time>2015-11-02T13:00:34Z</time>
      </trkpt>
      <trkpt lat="46.84384" lon="-1.47699">
        <ele>61.06</ele>
        <time>2015-11-02T13:00:43Z</time>
      </trkpt>
      <trkpt lat="46.84398" lon="-1.47683">
        <ele>62.81</ele>
        <time>2015-11-02T13:00:54Z</time>
      </trkpt>
      <trkpt lat="46.84414" lon="-1.47669">
        <ele>62.02</ele>
        <time>2015-11-02T13:01:01Z</time>
      </trkpt>
      <trkpt lat="46.84423" lon="-1.47644">
        <ele>64.6</ele>
        <time>2015-11-02T13:01:08Z</time>
      </trkpt>
      <trkpt lat="46.84433" lon="-1.47619">
        <ele>59.46</ele>
        <time>2015-11-02T13:01:16Z</time>
      </trkpt>
      <trkpt lat="46.84443" lon="-1.47591">
        <ele>61.12</ele>
        <time>2015-11-02T13:01:24Z</time>
      </trkpt>
      <trkpt lat="46.84457" lon="-1.47572">
        <ele>59.69</ele>
        <time>2015-11-02T13:01:31Z</time>
      </trkpt>
      <trkpt lat="46.84466" lon="-1.47548">
        <ele>56.91</ele>
        <time>2015-11-02T13:01:41Z</time>
      </trkpt>
      <trkpt lat="46.84462" lon="-1.47521">
        <ele>59.19</ele>
        <time>2015-11-02T13:01:57Z</time>
      </trkpt>
      <trkpt lat="46.84458" lon="-1.47495">
        <ele>53.78</ele>
        <time>2015-11-02T13:02:21Z</time>
      </trkpt>
      <trkpt lat="46.84465" lon="-1.47468">
        <ele>56.49</ele>
        <time>2015-11-02T13:02:29Z</time>
      </trkpt>
      <trkpt lat="46.84474" lon="-1.47439">
        <ele>57.06</ele>
        <time>2015-11-02T13:02:37Z</time>
      </trkpt>
      <trkpt lat="46.84481" lon="-1.47413">
        <ele>55.81</ele>
        <time>2015-11-02T13:02:43Z</time>
      </trkpt>
      <trkpt lat="46.84489" lon="-1.47384">
        <ele>54.77</ele>
        <time>2015-11-02T13:02:49Z</time>
      </trkpt>
      <trkpt lat="46.84497" lon="-1.4736">
        <ele>53.96</ele>
        <time>2015-11-02T13:02:54Z</time>
      </trkpt>
      <trkpt lat="46.84504" lon="-1.47329">
        <ele>53.93</ele>
        <time>2015-11-02T13:02:59Z</time>
      </trkpt>
      <trkpt lat="46.8451" lon="-1.473">
        <ele>53.96</ele>
        <time>2015-11-02T13:03:03Z</time>
      </trkpt>
      <trkpt lat="46.84519" lon="-1.47272">
        <ele>53.15</ele>
        <time>2015-11-02T13:03:07Z</time>
      </trkpt>
      <trkpt lat="46.84527" lon="-1.47242">
        <ele>54.53</ele>
        <time>2015-11-02T13:03:11Z</time>
      </trkpt>
      <trkpt lat="46.84534" lon="-1.47213">
        <ele>55.85</ele>
        <time>2015-11-02T13:03:16Z</time>
      </trkpt>
      <trkpt lat="46.84542" lon="-1.47187">
        <ele>56.96</ele>
        <time>2015-11-02T13:03:22Z</time>
      </trkpt>
      <trkpt lat="46.84559" lon="-1.47177">
        <ele>59.13</ele>
        <time>2015-11-02T13:03:33Z</time>
      </trkpt>
      <trkpt lat="46.84576" lon="-1.47189">
        <ele>58.17</ele>
        <time>2015-11-02T13:03:39Z</time>
      </trkpt>
      <trkpt lat="46.84594" lon="-1.47198">
        <ele>57.16</ele>
        <time>2015-11-02T13:03:43Z</time>
      </trkpt>
      <trkpt lat="46.84614" lon="-1.47213">
        <ele>56.53</ele>
        <time>2015-11-02T13:03:47Z</time>
      </trkpt>
      <trkpt lat="46.84634" lon="-1.47223">
        <ele>55.21</ele>
        <time>2015-11-02T13:03:50Z</time>
      </trkpt>
      <trkpt lat="46.84655" lon="-1.47231">
        <ele>55.05</ele>
        <time>2015-11-02T13:03:53Z</time>
      </trkpt>
      <trkpt lat="46.84677" lon="-1.47239">
        <ele>55.53</ele>
        <time>2015-11-02T13:03:56Z</time>
      </trkpt>
      <trkpt lat="46.847" lon="-1.47246">
        <ele>55.46</ele>
        <time>2015-11-02T13:03:59Z</time>
      </trkpt>
      <trkpt lat="46.84723" lon="-1.47254">
        <ele>54.46</ele>
        <time>2015-11-02T13:04:02Z</time>
      </trkpt>
      <trkpt lat="46.84744" lon="-1.47252">
        <ele>52.58</ele>
        <time>2015-11-02T13:04:05Z</time>
      </trkpt>
      <trkpt lat="46.84764" lon="-1.47241">
        <ele>51.35</ele>
        <time>2015-11-02T13:04:08Z</time>
      </trkpt>
      <trkpt lat="46.84779" lon="-1.47224">
        <ele>53.32</ele>
        <time>2015-11-02T13:04:11Z</time>
      </trkpt>
      <trkpt lat="46.84787" lon="-1.47194">
        <ele>54.11</ele>
        <time>2015-11-02T13:04:15Z</time>
      </trkpt>
      <trkpt lat="46.84793" lon="-1.47163">
        <ele>53.09</ele>
        <time>2015-11-02T13:04:19Z</time>
      </trkpt>
      <trkpt lat="46.848" lon="-1.4713">
        <ele>51.41</ele>
        <time>2015-11-02T13:04:23Z</time>
      </trkpt>
      <trkpt lat="46.8481" lon="-1.47103">
        <ele>50.32</ele>
        <time>2015-11-02T13:04:26Z</time>
      </trkpt>
      <trkpt lat="46.84823" lon="-1.47074">
        <ele>49.31</ele>
        <time>2015-11-02T13:04:29Z</time>
      </trkpt>
      <trkpt lat="46.84837" lon="-1.47042">
        <ele>48.56</ele>
        <time>2015-11-02T13:04:32Z</time>
      </trkpt>
      <trkpt lat="46.84848" lon="-1.47019">
        <ele>47.66</ele>
        <time>2015-11-02T13:04:34Z</time>
      </trkpt>
      <trkpt lat="46.84859" lon="-1.46995">
        <ele>46.43</ele>
        <time>2015-11-02T13:04:36Z</time>
      </trkpt>
      <trkpt lat="46.84869" lon="-1.46968">
        <ele>44.63</ele>
        <time>2015-11-02T13:04:38Z</time>
      </trkpt>
      <trkpt lat="46.8488" lon="-1.46941">
        <ele>42.93</ele>
        <time>2015-11-02T13:04:40Z</time>
      </trkpt>
      <trkpt lat="46.84891" lon="-1.46913">
        <ele>41.5</ele>
        <time>2015-11-02T13:04:42Z</time>
      </trkpt>
      <trkpt lat="46.84899" lon="-1.46886">
        <ele>40.64</ele>
        <time>2015-11-02T13:04:44Z</time>
      </trkpt>
      <trkpt lat="46.84908" lon="-1.46859">
        <ele>40.18</ele>
        <time>2015-11-02T13:04:46Z</time>
      </trkpt>
      <trkpt lat="46.84916" lon="-1.46834">
        <ele>39.31</ele>
        <time>2015-11-02T13:04:48Z</time>
      </trkpt>
      <trkpt lat="46.84925" lon="-1.468">
        <ele>39.06</ele>
        <time>2015-11-02T13:04:51Z</time>
      </trkpt>
      <trkpt lat="46.84934" lon="-1.46769">
        <ele>39.03</ele>
        <time>2015-11-02T13:04:54Z</time>
      </trkpt>
      <trkpt lat="46.84942" lon="-1.46744">
        <ele>39.28</ele>
        <time>2015-11-02T13:04:57Z</time>
      </trkpt>
      <trkpt lat="46.84951" lon="-1.4672">
        <ele>39.79</ele>
        <time>2015-11-02T13:05:01Z</time>
      </trkpt>
      <trkpt lat="46.84969" lon="-1.46711">
        <ele>37.94</ele>
        <time>2015-11-02T13:05:08Z</time>
      </trkpt>
      <trkpt lat="46.8498" lon="-1.46731">
        <ele>36.12</ele>
        <time>2015-11-02T13:05:14Z</time>
      </trkpt>
      <trkpt lat="46.84998" lon="-1.4675">
        <ele>36.41</ele>
        <time>2015-11-02T13:05:18Z</time>
      </trkpt>
      <trkpt lat="46.85012" lon="-1.46767">
        <ele>35.95</ele>
        <time>2015-11-02T13:05:21Z</time>
      </trkpt>
      <trkpt lat="46.85029" lon="-1.46788">
        <ele>37.21</ele>
        <time>2015-11-02T13:05:25Z</time>
      </trkpt>
      <trkpt lat="46.85045" lon="-1.46805">
        <ele>39.81</ele>
        <time>2015-11-02T13:05:30Z</time>
      </trkpt>
      <trkpt lat="46.85063" lon="-1.46815">
        <ele>41.01</ele>
        <time>2015-11-02T13:05:36Z</time>
      </trkpt>
      <trkpt lat="46.85081" lon="-1.46806">
        <ele>44.85</ele>
        <time>2015-11-02T13:05:44Z</time>
      </trkpt>
      <trkpt lat="46.85098" lon="-1.46792">
        <ele>45.45</ele>
        <time>2015-11-02T13:05:54Z</time>
      </trkpt>
      <trkpt lat="46.85115" lon="-1.46781">
        <ele>46.87</ele>
        <time>2015-11-02T13:06:04Z</time>
      </trkpt>
      <trkpt lat="46.85135" lon="-1.46773">
        <ele>50.72</ele>
        <time>2015-11-02T13:06:15Z</time>
      </trkpt>
      <trkpt lat="46.85152" lon="-1.46765">
        <ele>51.37</ele>
        <time>2015-11-02T13:06:25Z</time>
      </trkpt>
      <trkpt lat="46.8517" lon="-1.46755">
        <ele>53.2</ele>
        <time>2015-11-02T13:06:33Z</time>
      </trkpt>
      <trkpt lat="46.85187" lon="-1.46747">
        <ele>52</ele>
        <time>2015-11-02T13:06:41Z</time>
      </trkpt>
      <trkpt lat="46.85205" lon="-1.46736">
        <ele>54.71</ele>
        <time>2015-11-02T13:06:53Z</time>
      </trkpt>
      <trkpt lat="46.85223" lon="-1.46725">
        <ele>57.45</ele>
        <time>2015-11-02T13:07:05Z</time>
      </trkpt>
      <trkpt lat="46.8524" lon="-1.46718">
        <ele>59.51</ele>
        <time>2015-11-02T13:07:17Z</time>
      </trkpt>
      <trkpt lat="46.85253" lon="-1.46738">
        <ele>59.85</ele>
        <time>2015-11-02T13:07:31Z</time>
      </trkpt>
      <trkpt lat="46.85259" lon="-1.46764">
        <ele>59.03</ele>
        <time>2015-11-02T13:07:38Z</time>
      </trkpt>
      <trkpt lat="46.85265" lon="-1.4679">
        <ele>60.46</ele>
        <time>2015-11-02T13:07:44Z</time>
      </trkpt>
      <trkpt lat="46.8527" lon="-1.46816">
        <ele>60.77</ele>
        <time>2015-11-02T13:07:50Z</time>
      </trkpt>
      <trkpt lat="46.85276" lon="-1.46846">
        <ele>61.05</ele>
        <time>2015-11-02T13:07:56Z</time>
      </trkpt>
      <trkpt lat="46.85282" lon="-1.46875">
        <ele>61.03</ele>
        <time>2015-11-02T13:08:01Z</time>
      </trkpt>
      <trkpt lat="46.85287" lon="-1.469">
        <ele>59.59</ele>
        <time>2015-11-02T13:08:05Z</time>
      </trkpt>
      <trkpt lat="46.85292" lon="-1.46927">
        <ele>59.94</ele>
        <time>2015-11-02T13:08:09Z</time>
      </trkpt>
      <trkpt lat="46.85298" lon="-1.46956">
        <ele>60.02</ele>
        <time>2015-11-02T13:08:13Z</time>
      </trkpt>
      <trkpt lat="46.85304" lon="-1.46983">
        <ele>59.96</ele>
        <time>2015-11-02T13:08:17Z</time>
      </trkpt>
      <trkpt lat="46.85307" lon="-1.47012">
        <ele>59.52</ele>
        <time>2015-11-02T13:08:21Z</time>
      </trkpt>
      <trkpt lat="46.85307" lon="-1.47043">
        <ele>58.12</ele>
        <time>2015-11-02T13:08:25Z</time>
      </trkpt>
      <trkpt lat="46.85309" lon="-1.47076">
        <ele>58.03</ele>
        <time>2015-11-02T13:08:29Z</time>
      </trkpt>
      <trkpt lat="46.85311" lon="-1.47112">
        <ele>57.96</ele>
        <time>2015-11-02T13:08:33Z</time>
      </trkpt>
      <trkpt lat="46.85312" lon="-1.47139">
        <ele>58.02</ele>
        <time>2015-11-02T13:08:36Z</time>
      </trkpt>
      <trkpt lat="46.85314" lon="-1.47167">
        <ele>58.03</ele>
        <time>2015-11-02T13:08:39Z</time>
      </trkpt>
      <trkpt lat="46.85317" lon="-1.47197">
        <ele>58.03</ele>
        <time>2015-11-02T13:08:42Z</time>
      </trkpt>
      <trkpt lat="46.8532" lon="-1.47224">
        <ele>57.78</ele>
        <time>2015-11-02T13:08:45Z</time>
      </trkpt>
      <trkpt lat="46.85323" lon="-1.47258">
        <ele>57.14</ele>
        <time>2015-11-02T13:08:49Z</time>
      </trkpt>
      <trkpt lat="46.85326" lon="-1.47285">
        <ele>57.54</ele>
        <time>2015-11-02T13:08:52Z</time>
      </trkpt>
      <trkpt lat="46.85328" lon="-1.47314">
        <ele>56.59</ele>
        <time>2015-11-02T13:08:55Z</time>
      </trkpt>
      <trkpt lat="46.8533" lon="-1.47349">
        <ele>55.87</ele>
        <time>2015-11-02T13:08:59Z</time>
      </trkpt>
      <trkpt lat="46.85334" lon="-1.47382">
        <ele>57.7</ele>
        <time>2015-11-02T13:09:03Z</time>
      </trkpt>
      <trkpt lat="46.85333" lon="-1.47416">
        <ele>57.32</ele>
        <time>2015-11-02T13:09:07Z</time>
      </trkpt>
      <trkpt lat="46.85335" lon="-1.47445">
        <ele>57.79</ele>
        <time>2015-11-02T13:09:11Z</time>
      </trkpt>
      <trkpt lat="46.85341" lon="-1.47473">
        <ele>57.28</ele>
        <time>2015-11-02T13:09:49Z</time>
      </trkpt>
      <trkpt lat="46.85329" lon="-1.47494">
        <ele>58.07</ele>
        <time>2015-11-02T13:09:54Z</time>
      </trkpt>
      <trkpt lat="46.85317" lon="-1.47514">
        <ele>58.03</ele>
        <time>2015-11-02T13:09:58Z</time>
      </trkpt>
      <trkpt lat="46.85304" lon="-1.47538">
        <ele>58.4</ele>
        <time>2015-11-02T13:10:02Z</time>
      </trkpt>
      <trkpt lat="46.85291" lon="-1.47561">
        <ele>58.99</ele>
        <time>2015-11-02T13:10:06Z</time>
      </trkpt>
      <trkpt lat="46.85277" lon="-1.47586">
        <ele>60.46</ele>
        <time>2015-11-02T13:10:10Z</time>
      </trkpt>
      <trkpt lat="46.85262" lon="-1.4761">
        <ele>60.12</ele>
        <time>2015-11-02T13:10:14Z</time>
      </trkpt>
      <trkpt lat="46.85247" lon="-1.47633">
        <ele>59.09</ele>
        <time>2015-11-02T13:10:18Z</time>
      </trkpt>
      <trkpt lat="46.85236" lon="-1.47655">
        <ele>59.78</ele>
        <time>2015-11-02T13:10:21Z</time>
      </trkpt>
      <trkpt lat="46.85223" lon="-1.4768">
        <ele>60.51</ele>
        <time>2015-11-02T13:10:25Z</time>
      </trkpt>
      <trkpt lat="46.85209" lon="-1.47702">
        <ele>62.56</ele>
        <time>2015-11-02T13:10:29Z</time>
      </trkpt>
      <trkpt lat="46.85195" lon="-1.4772">
        <ele>62.93</ele>
        <time>2015-11-02T13:10:33Z</time>
      </trkpt>
      <trkpt lat="46.85187" lon="-1.47748">
        <ele>63.23</ele>
        <time>2015-11-02T13:10:39Z</time>
      </trkpt>
      <trkpt lat="46.85201" lon="-1.47769">
        <ele>64</ele>
        <time>2015-11-02T13:10:45Z</time>
      </trkpt>
      <trkpt lat="46.85217" lon="-1.47786">
        <ele>64.78</ele>
        <time>2015-11-02T13:10:50Z</time>
      </trkpt>
      <trkpt lat="46.85235" lon="-1.47804">
        <ele>64.39</ele>
        <time>2015-11-02T13:10:55Z</time>
      </trkpt>
      <trkpt lat="46.8525" lon="-1.47819">
        <ele>64.67</ele>
        <time>2015-11-02T13:10:59Z</time>
      </trkpt>
      <trkpt lat="46.85268" lon="-1.47834">
        <ele>64.07</ele>
        <time>2015-11-02T13:11:03Z</time>
      </trkpt>
      <trkpt lat="46.85284" lon="-1.4785">
        <ele>64.03</ele>
        <time>2015-11-02T13:11:07Z</time>
      </trkpt>
      <trkpt lat="46.85301" lon="-1.47867">
        <ele>62.4</ele>
        <time>2015-11-02T13:11:11Z</time>
      </trkpt>
      <trkpt lat="46.85319" lon="-1.47883">
        <ele>61.67</ele>
        <time>2015-11-02T13:11:15Z</time>
      </trkpt>
      <trkpt lat="46.85338" lon="-1.47899">
        <ele>61.75</ele>
        <time>2015-11-02T13:11:19Z</time>
      </trkpt>
      <trkpt lat="46.85353" lon="-1.47919">
        <ele>62.01</ele>
        <time>2015-11-02T13:11:23Z</time>
      </trkpt>
      <trkpt lat="46.85365" lon="-1.47947">
        <ele>62.77</ele>
        <time>2015-11-02T13:11:27Z</time>
      </trkpt>
      <trkpt lat="46.85377" lon="-1.47976">
        <ele>62.51</ele>
        <time>2015-11-02T13:11:31Z</time>
      </trkpt>
      <trkpt lat="46.8539" lon="-1.48003">
        <ele>63.49</ele>
        <time>2015-11-02T13:11:35Z</time>
      </trkpt>
      <trkpt lat="46.85396" lon="-1.48035">
        <ele>63.12</ele>
        <time>2015-11-02T13:11:39Z</time>
      </trkpt>
      <trkpt lat="46.85401" lon="-1.48061">
        <ele>63.04</ele>
        <time>2015-11-02T13:11:42Z</time>
      </trkpt>
      <trkpt lat="46.85415" lon="-1.48082">
        <ele>62.15</ele>
        <time>2015-11-02T13:11:46Z</time>
      </trkpt>
      <trkpt lat="46.85436" lon="-1.48077">
        <ele>61.1</ele>
        <time>2015-11-02T13:11:50Z</time>
      </trkpt>
      <trkpt lat="46.85455" lon="-1.48069">
        <ele>60.53</ele>
        <time>2015-11-02T13:11:54Z</time>
      </trkpt>
      <trkpt lat="46.85475" lon="-1.48062">
        <ele>59.56</ele>
        <time>2015-11-02T13:11:58Z</time>
      </trkpt>
      <trkpt lat="46.85495" lon="-1.48053">
        <ele>58.18</ele>
        <time>2015-11-02T13:12:02Z</time>
      </trkpt>
      <trkpt lat="46.85513" lon="-1.48038">
        <ele>54.8</ele>
        <time>2015-11-02T13:12:05Z</time>
      </trkpt>
      <trkpt lat="46.85531" lon="-1.48021">
        <ele>52.62</ele>
        <time>2015-11-02T13:12:08Z</time>
      </trkpt>
      <trkpt lat="46.85553" lon="-1.48002">
        <ele>49.85</ele>
        <time>2015-11-02T13:12:11Z</time>
      </trkpt>
      <trkpt lat="46.85576" lon="-1.47983">
        <ele>47</ele>
        <time>2015-11-02T13:12:14Z</time>
      </trkpt>
      <trkpt lat="46.85592" lon="-1.47968">
        <ele>45.77</ele>
        <time>2015-11-02T13:12:16Z</time>
      </trkpt>
      <trkpt lat="46.85609" lon="-1.47953">
        <ele>43.96</ele>
        <time>2015-11-02T13:12:18Z</time>
      </trkpt>
      <trkpt lat="46.8563" lon="-1.47935">
        <ele>42.01</ele>
        <time>2015-11-02T13:12:20Z</time>
      </trkpt>
      <trkpt lat="46.8565" lon="-1.47922">
        <ele>41.27</ele>
        <time>2015-11-02T13:12:22Z</time>
      </trkpt>
      <trkpt lat="46.85669" lon="-1.47911">
        <ele>42.59</ele>
        <time>2015-11-02T13:12:24Z</time>
      </trkpt>
      <trkpt lat="46.85687" lon="-1.47901">
        <ele>43.67</ele>
        <time>2015-11-02T13:12:26Z</time>
      </trkpt>
      <trkpt lat="46.85704" lon="-1.47891">
        <ele>43.94</ele>
        <time>2015-11-02T13:12:28Z</time>
      </trkpt>
      <trkpt lat="46.85727" lon="-1.47878">
        <ele>45.64</ele>
        <time>2015-11-02T13:12:31Z</time>
      </trkpt>
      <trkpt lat="46.85749" lon="-1.47868">
        <ele>47.6</ele>
        <time>2015-11-02T13:12:34Z</time>
      </trkpt>
      <trkpt lat="46.85768" lon="-1.47879">
        <ele>48.72</ele>
        <time>2015-11-02T13:12:37Z</time>
      </trkpt>
      <trkpt lat="46.85784" lon="-1.47902">
        <ele>52.07</ele>
        <time>2015-11-02T13:12:41Z</time>
      </trkpt>
      <trkpt lat="46.85797" lon="-1.4792">
        <ele>54.75</ele>
        <time>2015-11-02T13:12:48Z</time>
      </trkpt>
      <trkpt lat="46.85816" lon="-1.47933">
        <ele>56.01</ele>
        <time>2015-11-02T13:12:56Z</time>
      </trkpt>
      <trkpt lat="46.85834" lon="-1.47942">
        <ele>56.49</ele>
        <time>2015-11-02T13:13:03Z</time>
      </trkpt>
      <trkpt lat="46.85851" lon="-1.47954">
        <ele>59.26</ele>
        <time>2015-11-02T13:13:11Z</time>
      </trkpt>
      <trkpt lat="46.8587" lon="-1.47964">
        <ele>58.98</ele>
        <time>2015-11-02T13:13:19Z</time>
      </trkpt>
      <trkpt lat="46.85889" lon="-1.47976">
        <ele>60.96</ele>
        <time>2015-11-02T13:13:26Z</time>
      </trkpt>
      <trkpt lat="46.85907" lon="-1.47985">
        <ele>60.15</ele>
        <time>2015-11-02T13:13:32Z</time>
      </trkpt>
      <trkpt lat="46.85923" lon="-1.48003">
        <ele>61.23</ele>
        <time>2015-11-02T13:13:38Z</time>
      </trkpt>
      <trkpt lat="46.8594" lon="-1.48021">
        <ele>60.15</ele>
        <time>2015-11-02T13:13:44Z</time>
      </trkpt>
      <trkpt lat="46.85956" lon="-1.48038">
        <ele>61.41</ele>
        <time>2015-11-02T13:13:49Z</time>
      </trkpt>
      <trkpt lat="46.85972" lon="-1.48057">
        <ele>62.01</ele>
        <time>2015-11-02T13:13:54Z</time>
      </trkpt>
      <trkpt lat="46.85986" lon="-1.48077">
        <ele>62.03</ele>
        <time>2015-11-02T13:13:59Z</time>
      </trkpt>
      <trkpt lat="46.86001" lon="-1.48099">
        <ele>62.03</ele>
        <time>2015-11-02T13:14:04Z</time>
      </trkpt>
      <trkpt lat="46.86011" lon="-1.48123">
        <ele>61.53</ele>
        <time>2015-11-02T13:14:08Z</time>
      </trkpt>
      <trkpt lat="46.86015" lon="-1.48153">
        <ele>60.95</ele>
        <time>2015-11-02T13:14:13Z</time>
      </trkpt>
      <trkpt lat="46.86029" lon="-1.48138">
        <ele>60.08</ele>
        <time>2015-11-02T13:14:48Z</time>
      </trkpt>
      <trkpt lat="46.86049" lon="-1.48133">
        <ele>58.59</ele>
        <time>2015-11-02T13:14:52Z</time>
      </trkpt>
      <trkpt lat="46.8607" lon="-1.4813">
        <ele>58.06</ele>
        <time>2015-11-02T13:14:56Z</time>
      </trkpt>
      <trkpt lat="46.86089" lon="-1.48127">
        <ele>58.03</ele>
        <time>2015-11-02T13:15:00Z</time>
      </trkpt>
      <trkpt lat="46.86109" lon="-1.4812">
        <ele>56.9</ele>
        <time>2015-11-02T13:15:04Z</time>
      </trkpt>
      <trkpt lat="46.86129" lon="-1.48114">
        <ele>55.14</ele>
        <time>2015-11-02T13:15:08Z</time>
      </trkpt>
      <trkpt lat="46.86151" lon="-1.48108">
        <ele>54.97</ele>
        <time>2015-11-02T13:15:12Z</time>
      </trkpt>
      <trkpt lat="46.86173" lon="-1.48104">
        <ele>55.21</ele>
        <time>2015-11-02T13:15:16Z</time>
      </trkpt>
      <trkpt lat="46.86196" lon="-1.48101">
        <ele>54.29</ele>
        <time>2015-11-02T13:15:20Z</time>
      </trkpt>
      <trkpt lat="46.86217" lon="-1.48096">
        <ele>54.54</ele>
        <time>2015-11-02T13:15:24Z</time>
      </trkpt>
      <trkpt lat="46.86235" lon="-1.48096">
        <ele>56.59</ele>
        <time>2015-11-02T13:15:57Z</time>
      </trkpt>
      <trkpt lat="46.86249" lon="-1.48073">
        <ele>57.01</ele>
        <time>2015-11-02T13:16:04Z</time>
      </trkpt>
      <trkpt lat="46.86263" lon="-1.48054">
        <ele>56.15</ele>
        <time>2015-11-02T13:16:09Z</time>
      </trkpt>
      <trkpt lat="46.86279" lon="-1.48033">
        <ele>56.22</ele>
        <time>2015-11-02T13:16:14Z</time>
      </trkpt>
      <trkpt lat="46.86295" lon="-1.48014">
        <ele>56.03</ele>
        <time>2015-11-02T13:16:19Z</time>
      </trkpt>
      <trkpt lat="46.86314" lon="-1.48007">
        <ele>55.78</ele>
        <time>2015-11-02T13:16:24Z</time>
      </trkpt>
      <trkpt lat="46.86332" lon="-1.48018">
        <ele>55.07</ele>
        <time>2015-11-02T13:16:28Z</time>
      </trkpt>
      <trkpt lat="46.86351" lon="-1.48025">
        <ele>54.53</ele>
        <time>2015-11-02T13:16:32Z</time>
      </trkpt>
      <trkpt lat="46.86372" lon="-1.4803">
        <ele>54.06</ele>
        <time>2015-11-02T13:16:36Z</time>
      </trkpt>
      <trkpt lat="46.86394" lon="-1.48034">
        <ele>54.65</ele>
        <time>2015-11-02T13:16:40Z</time>
      </trkpt>
      <trkpt lat="46.86416" lon="-1.48044">
        <ele>54.63</ele>
        <time>2015-11-02T13:16:44Z</time>
      </trkpt>
      <trkpt lat="46.86433" lon="-1.48056">
        <ele>54.98</ele>
        <time>2015-11-02T13:16:47Z</time>
      </trkpt>
      <trkpt lat="46.86448" lon="-1.48071">
        <ele>55.77</ele>
        <time>2015-11-02T13:16:50Z</time>
      </trkpt>
      <trkpt lat="46.86463" lon="-1.48087">
        <ele>57.37</ele>
        <time>2015-11-02T13:16:53Z</time>
      </trkpt>
      <trkpt lat="46.86483" lon="-1.4811">
        <ele>57.98</ele>
        <time>2015-11-02T13:16:57Z</time>
      </trkpt>
      <trkpt lat="46.86504" lon="-1.48126">
        <ele>57.9</ele>
        <time>2015-11-02T13:17:01Z</time>
      </trkpt>
      <trkpt lat="46.86524" lon="-1.4814">
        <ele>58.96</ele>
        <time>2015-11-02T13:17:05Z</time>
      </trkpt>
      <trkpt lat="46.86544" lon="-1.48155">
        <ele>59.4</ele>
        <time>2015-11-02T13:17:09Z</time>
      </trkpt>
      <trkpt lat="46.86562" lon="-1.48174">
        <ele>59.55</ele>
        <time>2015-11-02T13:17:13Z</time>
      </trkpt>
      <trkpt lat="46.86576" lon="-1.482">
        <ele>60.25</ele>
        <time>2015-11-02T13:17:17Z</time>
      </trkpt>
      <trkpt lat="46.86589" lon="-1.4823">
        <ele>60.16</ele>
        <time>2015-11-02T13:17:21Z</time>
      </trkpt>
      <trkpt lat="46.86602" lon="-1.48257">
        <ele>60.78</ele>
        <time>2015-11-02T13:17:25Z</time>
      </trkpt>
      <trkpt lat="46.86614" lon="-1.48289">
        <ele>59.82</ele>
        <time>2015-11-02T13:17:29Z</time>
      </trkpt>
      <trkpt lat="46.86625" lon="-1.4832">
        <ele>58.33</ele>
        <time>2015-11-02T13:17:33Z</time>
      </trkpt>
      <trkpt lat="46.86637" lon="-1.48345">
        <ele>57.42</ele>
        <time>2015-11-02T13:17:37Z</time>
      </trkpt>
      <trkpt lat="46.86632" lon="-1.48372">
        <ele>57.28</ele>
        <time>2015-11-02T13:17:43Z</time>
      </trkpt>
      <trkpt lat="46.86614" lon="-1.48388">
        <ele>57.04</ele>
        <time>2015-11-02T13:17:47Z</time>
      </trkpt>
      <trkpt lat="46.86596" lon="-1.48405">
        <ele>56.96</ele>
        <time>2015-11-02T13:17:51Z</time>
      </trkpt>
      <trkpt lat="46.86585" lon="-1.48432">
        <ele>58.52</ele>
        <time>2015-11-02T13:17:55Z</time>
      </trkpt>
      <trkpt lat="46.86592" lon="-1.48456">
        <ele>58.96</ele>
        <time>2015-11-02T13:17:58Z</time>
      </trkpt>
      <trkpt lat="46.86603" lon="-1.48478">
        <ele>57.89</ele>
        <time>2015-11-02T13:18:01Z</time>
      </trkpt>
      <trkpt lat="46.86617" lon="-1.48506">
        <ele>55.39</ele>
        <time>2015-11-02T13:18:05Z</time>
      </trkpt>
      <trkpt lat="46.86629" lon="-1.4853">
        <ele>54.95</ele>
        <time>2015-11-02T13:18:08Z</time>
      </trkpt>
      <trkpt lat="46.86642" lon="-1.48557">
        <ele>54.14</ele>
        <time>2015-11-02T13:18:11Z</time>
      </trkpt>
      <trkpt lat="46.86655" lon="-1.48583">
        <ele>54.04</ele>
        <time>2015-11-02T13:18:14Z</time>
      </trkpt>
      <trkpt lat="46.86669" lon="-1.4861">
        <ele>54.03</ele>
        <time>2015-11-02T13:18:17Z</time>
      </trkpt>
      <trkpt lat="46.86685" lon="-1.48637">
        <ele>54.03</ele>
        <time>2015-11-02T13:18:20Z</time>
      </trkpt>
      <trkpt lat="46.86698" lon="-1.48664">
        <ele>52.78</ele>
        <time>2015-11-02T13:18:23Z</time>
      </trkpt>
      <trkpt lat="46.86712" lon="-1.48692">
        <ele>52.12</ele>
        <time>2015-11-02T13:18:26Z</time>
      </trkpt>
      <trkpt lat="46.86723" lon="-1.48714">
        <ele>51.79</ele>
        <time>2015-11-02T13:18:29Z</time>
      </trkpt>
      <trkpt lat="46.86736" lon="-1.48736">
        <ele>51.12</ele>
        <time>2015-11-02T13:18:32Z</time>
      </trkpt>
      <trkpt lat="46.86751" lon="-1.4876">
        <ele>50.16</ele>
        <time>2015-11-02T13:18:35Z</time>
      </trkpt>
      <trkpt lat="46.86766" lon="-1.48783">
        <ele>48.42</ele>
        <time>2015-11-02T13:18:38Z</time>
      </trkpt>
      <trkpt lat="46.86778" lon="-1.48802">
        <ele>46.45</ele>
        <time>2015-11-02T13:18:41Z</time>
      </trkpt>
      <trkpt lat="46.86791" lon="-1.48823">
        <ele>44.7</ele>
        <time>2015-11-02T13:18:44Z</time>
      </trkpt>
      <trkpt lat="46.86806" lon="-1.48844">
        <ele>41.99</ele>
        <time>2015-11-02T13:18:47Z</time>
      </trkpt>
      <trkpt lat="46.86821" lon="-1.48869">
        <ele>40.4</ele>
        <time>2015-11-02T13:18:50Z</time>
      </trkpt>
      <trkpt lat="46.86834" lon="-1.4889">
        <ele>39.57</ele>
        <time>2015-11-02T13:18:53Z</time>
      </trkpt>
      <trkpt lat="46.86846" lon="-1.48911">
        <ele>37.84</ele>
        <time>2015-11-02T13:18:56Z</time>
      </trkpt>
      <trkpt lat="46.86859" lon="-1.48931">
        <ele>35.25</ele>
        <time>2015-11-02T13:18:59Z</time>
      </trkpt>
      <trkpt lat="46.86874" lon="-1.48956">
        <ele>33.3</ele>
        <time>2015-11-02T13:19:02Z</time>
      </trkpt>
      <trkpt lat="46.86892" lon="-1.48983">
        <ele>32.19</ele>
        <time>2015-11-02T13:19:05Z</time>
      </trkpt>
      <trkpt lat="46.86904" lon="-1.49003">
        <ele>31.32</ele>
        <time>2015-11-02T13:19:07Z</time>
      </trkpt>
      <trkpt lat="46.86921" lon="-1.49029">
        <ele>30.19</ele>
        <time>2015-11-02T13:19:10Z</time>
      </trkpt>
      <trkpt lat="46.86937" lon="-1.49053">
        <ele>29.3</ele>
        <time>2015-11-02T13:19:13Z</time>
      </trkpt>
      <trkpt lat="46.86951" lon="-1.49074">
        <ele>29.79</ele>
        <time>2015-11-02T13:19:17Z</time>
      </trkpt>
      <trkpt lat="46.86937" lon="-1.49051">
        <ele>29.87</ele>
        <time>2015-11-02T13:19:51Z</time>
      </trkpt>
      <trkpt lat="46.86924" lon="-1.49028">
        <ele>32.51</ele>
        <time>2015-11-02T13:19:57Z</time>
      </trkpt>
      <trkpt lat="46.86911" lon="-1.49008">
        <ele>36.17</ele>
        <time>2015-11-02T13:20:03Z</time>
      </trkpt>
      <trkpt lat="46.86898" lon="-1.48988">
        <ele>39.35</ele>
        <time>2015-11-02T13:20:10Z</time>
      </trkpt>
      <trkpt lat="46.86882" lon="-1.48972">
        <ele>38.78</ele>
        <time>2015-11-02T13:20:42Z</time>
      </trkpt>
      <trkpt lat="46.86871" lon="-1.48951">
        <ele>39.05</ele>
        <time>2015-11-02T13:20:50Z</time>
      </trkpt>
      <trkpt lat="46.86858" lon="-1.48932">
        <ele>38.8</ele>
        <time>2015-11-02T13:20:58Z</time>
      </trkpt>
      <trkpt lat="46.86846" lon="-1.48909">
        <ele>37.99</ele>
        <time>2015-11-02T13:21:06Z</time>
      </trkpt>
      <trkpt lat="46.86832" lon="-1.48889">
        <ele>39.91</ele>
        <time>2015-11-02T13:21:15Z</time>
      </trkpt>
      <trkpt lat="46.86819" lon="-1.4887">
        <ele>42.69</ele>
        <time>2015-11-02T13:21:23Z</time>
      </trkpt>
      <trkpt lat="46.86809" lon="-1.48848">
        <ele>41.78</ele>
        <time>2015-11-02T13:21:32Z</time>
      </trkpt>
      <trkpt lat="46.86796" lon="-1.48827">
        <ele>40.43</ele>
        <time>2015-11-02T13:21:42Z</time>
      </trkpt>
      <trkpt lat="46.86782" lon="-1.48806">
        <ele>41.99</ele>
        <time>2015-11-02T13:21:54Z</time>
      </trkpt>
      <trkpt lat="46.86767" lon="-1.48787">
        <ele>43.96</ele>
        <time>2015-11-02T13:22:04Z</time>
      </trkpt>
      <trkpt lat="46.86755" lon="-1.48766">
        <ele>47.68</ele>
        <time>2015-11-02T13:22:15Z</time>
      </trkpt>
      <trkpt lat="46.86741" lon="-1.48745">
        <ele>50.46</ele>
        <time>2015-11-02T13:22:25Z</time>
      </trkpt>
      <trkpt lat="46.86728" lon="-1.48724">
        <ele>50.79</ele>
        <time>2015-11-02T13:22:35Z</time>
      </trkpt>
      <trkpt lat="46.86718" lon="-1.48701">
        <ele>50.98</ele>
        <time>2015-11-02T13:22:44Z</time>
      </trkpt>
      <trkpt lat="46.86705" lon="-1.48677">
        <ele>52.6</ele>
        <time>2015-11-02T13:22:53Z</time>
      </trkpt>
      <trkpt lat="46.86695" lon="-1.48654">
        <ele>54.02</ele>
        <time>2015-11-02T13:23:01Z</time>
      </trkpt>
      <trkpt lat="46.86682" lon="-1.48631">
        <ele>54</ele>
        <time>2015-11-02T13:23:09Z</time>
      </trkpt>
      <trkpt lat="46.86671" lon="-1.4861">
        <ele>55</ele>
        <time>2015-11-02T13:23:17Z</time>
      </trkpt>
      <trkpt lat="46.86659" lon="-1.48587">
        <ele>55.15</ele>
        <time>2015-11-02T13:23:25Z</time>
      </trkpt>
      <trkpt lat="46.86648" lon="-1.48565">
        <ele>55.87</ele>
        <time>2015-11-02T13:23:34Z</time>
      </trkpt>
      <trkpt lat="46.86637" lon="-1.48541">
        <ele>55.76</ele>
        <time>2015-11-02T13:23:43Z</time>
      </trkpt>
      <trkpt lat="46.86626" lon="-1.4852">
        <ele>56.77</ele>
        <time>2015-11-02T13:23:51Z</time>
      </trkpt>
      <trkpt lat="46.86614" lon="-1.48498">
        <ele>57.03</ele>
        <time>2015-11-02T13:23:59Z</time>
      </trkpt>
      <trkpt lat="46.86602" lon="-1.48476">
        <ele>55.12</ele>
        <time>2015-11-02T13:24:07Z</time>
      </trkpt>
      <trkpt lat="46.86591" lon="-1.48452">
        <ele>55.53</ele>
        <time>2015-11-02T13:24:14Z</time>
      </trkpt>
      <trkpt lat="46.86584" lon="-1.48427">
        <ele>56.96</ele>
        <time>2015-11-02T13:24:23Z</time>
      </trkpt>
      <trkpt lat="46.8659" lon="-1.48453">
        <ele>60.25</ele>
        <time>2015-11-02T13:26:02Z</time>
      </trkpt>
      <trkpt lat="46.86603" lon="-1.48478">
        <ele>60.03</ele>
        <time>2015-11-02T13:26:08Z</time>
      </trkpt>
      <trkpt lat="46.86615" lon="-1.485">
        <ele>60.78</ele>
        <time>2015-11-02T13:26:13Z</time>
      </trkpt>
      <trkpt lat="46.86627" lon="-1.48526">
        <ele>59.17</ele>
        <time>2015-11-02T13:26:18Z</time>
      </trkpt>
      <trkpt lat="46.86639" lon="-1.48551">
        <ele>58.06</ele>
        <time>2015-11-02T13:26:23Z</time>
      </trkpt>
      <trkpt lat="46.86635" lon="-1.48577">
        <ele>58.02</ele>
        <time>2015-11-02T13:26:32Z</time>
      </trkpt>
      <trkpt lat="46.86618" lon="-1.48594">
        <ele>58.78</ele>
        <time>2015-11-02T13:26:39Z</time>
      </trkpt>
      <trkpt lat="46.86603" lon="-1.4861">
        <ele>58.09</ele>
        <time>2015-11-02T13:26:46Z</time>
      </trkpt>
      <trkpt lat="46.86589" lon="-1.48627">
        <ele>56.25</ele>
        <time>2015-11-02T13:26:54Z</time>
      </trkpt>
      <trkpt lat="46.86605" lon="-1.48609">
        <ele>58.01</ele>
        <time>2015-11-02T13:29:05Z</time>
      </trkpt>
      <trkpt lat="46.86621" lon="-1.48591">
        <ele>58.26</ele>
        <time>2015-11-02T13:29:14Z</time>
      </trkpt>
      <trkpt lat="46.86638" lon="-1.48575">
        <ele>57.97</ele>
        <time>2015-11-02T13:29:22Z</time>
      </trkpt>
      <trkpt lat="46.86639" lon="-1.48548">
        <ele>59</ele>
        <time>2015-11-02T13:29:33Z</time>
      </trkpt>
      <trkpt lat="46.86629" lon="-1.48525">
        <ele>59.96</ele>
        <time>2015-11-02T13:29:39Z</time>
      </trkpt>
      <trkpt lat="46.86617" lon="-1.48502">
        <ele>60.03</ele>
        <time>2015-11-02T13:29:45Z</time>
      </trkpt>
      <trkpt lat="46.86605" lon="-1.48479">
        <ele>60.03</ele>
        <time>2015-11-02T13:29:51Z</time>
      </trkpt>
      <trkpt lat="46.86593" lon="-1.48457">
        <ele>60.06</ele>
        <time>2015-11-02T13:29:57Z</time>
      </trkpt>
      <trkpt lat="46.86585" lon="-1.48433">
        <ele>60.96</ele>
        <time>2015-11-02T13:30:03Z</time>
      </trkpt>
      <trkpt lat="46.86597" lon="-1.48409">
        <ele>61.5</ele>
        <time>2015-11-02T13:30:10Z</time>
      </trkpt>
      <trkpt lat="46.86615" lon="-1.48392">
        <ele>61.52</ele>
        <time>2015-11-02T13:30:16Z</time>
      </trkpt>
      <trkpt lat="46.86632" lon="-1.48375">
        <ele>62</ele>
        <time>2015-11-02T13:30:22Z</time>
      </trkpt>
      <trkpt lat="46.86638" lon="-1.4835">
        <ele>63.53</ele>
        <time>2015-11-02T13:30:29Z</time>
      </trkpt>
      <trkpt lat="46.86626" lon="-1.48324">
        <ele>66.27</ele>
        <time>2015-11-02T13:30:35Z</time>
      </trkpt>
      <trkpt lat="46.86614" lon="-1.48299">
        <ele>65.03</ele>
        <time>2015-11-02T13:30:40Z</time>
      </trkpt>
      <trkpt lat="46.86603" lon="-1.48274">
        <ele>66.49</ele>
        <time>2015-11-02T13:30:45Z</time>
      </trkpt>
      <trkpt lat="46.86594" lon="-1.48251">
        <ele>65.87</ele>
        <time>2015-11-02T13:30:49Z</time>
      </trkpt>
      <trkpt lat="46.86583" lon="-1.48225">
        <ele>67.21</ele>
        <time>2015-11-02T13:30:54Z</time>
      </trkpt>
      <trkpt lat="46.86573" lon="-1.48199">
        <ele>65.79</ele>
        <time>2015-11-02T13:30:58Z</time>
      </trkpt>
      <trkpt lat="46.86561" lon="-1.48178">
        <ele>65.07</ele>
        <time>2015-11-02T13:31:02Z</time>
      </trkpt>
      <trkpt lat="46.86545" lon="-1.48161">
        <ele>65.47</ele>
        <time>2015-11-02T13:31:06Z</time>
      </trkpt>
      <trkpt lat="46.86527" lon="-1.48146">
        <ele>65.99</ele>
        <time>2015-11-02T13:31:10Z</time>
      </trkpt>
      <trkpt lat="46.86507" lon="-1.48132">
        <ele>65.52</ele>
        <time>2015-11-02T13:31:14Z</time>
      </trkpt>
      <trkpt lat="46.86487" lon="-1.48116">
        <ele>64.93</ele>
        <time>2015-11-02T13:31:18Z</time>
      </trkpt>
      <trkpt lat="46.8647" lon="-1.48098">
        <ele>63.58</ele>
        <time>2015-11-02T13:31:22Z</time>
      </trkpt>
      <trkpt lat="46.86453" lon="-1.48079">
        <ele>63.12</ele>
        <time>2015-11-02T13:31:26Z</time>
      </trkpt>
      <trkpt lat="46.86437" lon="-1.48062">
        <ele>63.78</ele>
        <time>2015-11-02T13:31:30Z</time>
      </trkpt>
      <trkpt lat="46.86419" lon="-1.48049">
        <ele>64.76</ele>
        <time>2015-11-02T13:31:34Z</time>
      </trkpt>
      <trkpt lat="46.86399" lon="-1.48039">
        <ele>64.76</ele>
        <time>2015-11-02T13:31:38Z</time>
      </trkpt>
      <trkpt lat="46.86377" lon="-1.48036">
        <ele>64.26</ele>
        <time>2015-11-02T13:31:42Z</time>
      </trkpt>
      <trkpt lat="46.86359" lon="-1.48032">
        <ele>63.1</ele>
        <time>2015-11-02T13:31:46Z</time>
      </trkpt>
      <trkpt lat="46.86341" lon="-1.48026">
        <ele>62.78</ele>
        <time>2015-11-02T13:31:50Z</time>
      </trkpt>
      <trkpt lat="46.86323" lon="-1.48016">
        <ele>64.39</ele>
        <time>2015-11-02T13:31:54Z</time>
      </trkpt>
      <trkpt lat="46.86303" lon="-1.48006">
        <ele>66.38</ele>
        <time>2015-11-02T13:31:59Z</time>
      </trkpt>
      <trkpt lat="46.86288" lon="-1.48023">
        <ele>64.66</ele>
        <time>2015-11-02T13:32:04Z</time>
      </trkpt>
      <trkpt lat="46.8627" lon="-1.48045">
        <ele>64.05</ele>
        <time>2015-11-02T13:32:09Z</time>
      </trkpt>
      <trkpt lat="46.86255" lon="-1.48065">
        <ele>63.28</ele>
        <time>2015-11-02T13:32:13Z</time>
      </trkpt>
      <trkpt lat="46.86239" lon="-1.48084">
        <ele>63.04</ele>
        <time>2015-11-02T13:32:17Z</time>
      </trkpt>
      <trkpt lat="46.86223" lon="-1.48099">
        <ele>63.26</ele>
        <time>2015-11-02T13:32:23Z</time>
      </trkpt>
      <trkpt lat="46.86215" lon="-1.48128">
        <ele>60.23</ele>
        <time>2015-11-02T13:32:29Z</time>
      </trkpt>
      <trkpt lat="46.86202" lon="-1.48157">
        <ele>59.98</ele>
        <time>2015-11-02T13:32:33Z</time>
      </trkpt>
      <trkpt lat="46.86192" lon="-1.48185">
        <ele>58.39</ele>
        <time>2015-11-02T13:32:36Z</time>
      </trkpt>
      <trkpt lat="46.86183" lon="-1.48208">
        <ele>55.95</ele>
        <time>2015-11-02T13:32:39Z</time>
      </trkpt>
      <trkpt lat="46.86171" lon="-1.48235">
        <ele>55.08</ele>
        <time>2015-11-02T13:32:43Z</time>
      </trkpt>
      <trkpt lat="46.86162" lon="-1.48263">
        <ele>55.03</ele>
        <time>2015-11-02T13:32:47Z</time>
      </trkpt>
      <trkpt lat="46.86154" lon="-1.48291">
        <ele>54.15</ele>
        <time>2015-11-02T13:32:52Z</time>
      </trkpt>
      <trkpt lat="46.86142" lon="-1.48312">
        <ele>52.35</ele>
        <time>2015-11-02T13:32:56Z</time>
      </trkpt>
      <trkpt lat="46.86124" lon="-1.4832">
        <ele>48.92</ele>
        <time>2015-11-02T13:33:02Z</time>
      </trkpt>
      <trkpt lat="46.86106" lon="-1.48327">
        <ele>44.12</ele>
        <time>2015-11-02T13:33:07Z</time>
      </trkpt>
      <trkpt lat="46.86092" lon="-1.48344">
        <ele>43.2</ele>
        <time>2015-11-02T13:33:13Z</time>
      </trkpt>
      <trkpt lat="46.86091" lon="-1.48371">
        <ele>38.43</ele>
        <time>2015-11-02T13:33:21Z</time>
      </trkpt>
      <trkpt lat="46.86092" lon="-1.48398">
        <ele>34.38</ele>
        <time>2015-11-02T13:33:33Z</time>
      </trkpt>
      <trkpt lat="46.86113" lon="-1.48396">
        <ele>36.25</ele>
        <time>2015-11-02T13:33:41Z</time>
      </trkpt>
      <trkpt lat="46.86131" lon="-1.48384">
        <ele>40.28</ele>
        <time>2015-11-02T13:33:47Z</time>
      </trkpt>
      <trkpt lat="46.86151" lon="-1.48375">
        <ele>41.32</ele>
        <time>2015-11-02T13:33:52Z</time>
      </trkpt>
      <trkpt lat="46.86166" lon="-1.48359">
        <ele>40.79</ele>
        <time>2015-11-02T13:33:59Z</time>
      </trkpt>
      <trkpt lat="46.86183" lon="-1.48344">
        <ele>41.19</ele>
        <time>2015-11-02T13:34:07Z</time>
      </trkpt>
      <trkpt lat="46.86203" lon="-1.48343">
        <ele>44.69</ele>
        <time>2015-11-02T13:34:15Z</time>
      </trkpt>
      <trkpt lat="46.86223" lon="-1.48345">
        <ele>47.58</ele>
        <time>2015-11-02T13:34:21Z</time>
      </trkpt>
      <trkpt lat="46.86242" lon="-1.4835">
        <ele>46.11</ele>
        <time>2015-11-02T13:34:26Z</time>
      </trkpt>
      <trkpt lat="46.86262" lon="-1.48355">
        <ele>40.34</ele>
        <time>2015-11-02T13:34:30Z</time>
      </trkpt>
      <trkpt lat="46.8628" lon="-1.48352">
        <ele>37.98</ele>
        <time>2015-11-02T13:34:34Z</time>
      </trkpt>
      <trkpt lat="46.86297" lon="-1.48364">
        <ele>34.17</ele>
        <time>2015-11-02T13:34:40Z</time>
      </trkpt>
      <trkpt lat="46.86314" lon="-1.48375">
        <ele>34.69</ele>
        <time>2015-11-02T13:34:45Z</time>
      </trkpt>
      <trkpt lat="46.86333" lon="-1.48383">
        <ele>34.49</ele>
        <time>2015-11-02T13:34:51Z</time>
      </trkpt>
      <trkpt lat="46.86351" lon="-1.48391">
        <ele>32.97</ele>
        <time>2015-11-02T13:34:59Z</time>
      </trkpt>
      <trkpt lat="46.86369" lon="-1.48398">
        <ele>34.74</ele>
        <time>2015-11-02T13:35:10Z</time>
      </trkpt>
      <trkpt lat="46.86382" lon="-1.4842">
        <ele>35.35</ele>
        <time>2015-11-02T13:35:19Z</time>
      </trkpt>
      <trkpt lat="46.86399" lon="-1.48437">
        <ele>31.75</ele>
        <time>2015-11-02T13:35:26Z</time>
      </trkpt>
      <trkpt lat="46.86412" lon="-1.48459">
        <ele>31.68</ele>
        <time>2015-11-02T13:35:32Z</time>
      </trkpt>
      <trkpt lat="46.86423" lon="-1.48484">
        <ele>33.88</ele>
        <time>2015-11-02T13:35:39Z</time>
      </trkpt>
      <trkpt lat="46.86432" lon="-1.48509">
        <ele>37.38</ele>
        <time>2015-11-02T13:35:48Z</time>
      </trkpt>
      <trkpt lat="46.86441" lon="-1.48532">
        <ele>36.55</ele>
        <time>2015-11-02T13:35:54Z</time>
      </trkpt>
      <trkpt lat="46.86453" lon="-1.48558">
        <ele>37.63</ele>
        <time>2015-11-02T13:36:00Z</time>
      </trkpt>
      <trkpt lat="46.86465" lon="-1.48579">
        <ele>37.22</ele>
        <time>2015-11-02T13:36:08Z</time>
      </trkpt>
      <trkpt lat="46.86474" lon="-1.48603">
        <ele>40.76</ele>
        <time>2015-11-02T13:36:14Z</time>
      </trkpt>
      <trkpt lat="46.86484" lon="-1.48626">
        <ele>41.69</ele>
        <time>2015-11-02T13:36:21Z</time>
      </trkpt>
      <trkpt lat="46.86486" lon="-1.48654">
        <ele>44.58</ele>
        <time>2015-11-02T13:36:34Z</time>
      </trkpt>
      <trkpt lat="46.86486" lon="-1.48681">
        <ele>47.94</ele>
        <time>2015-11-02T13:36:42Z</time>
      </trkpt>
      <trkpt lat="46.86486" lon="-1.48708">
        <ele>46.6</ele>
        <time>2015-11-02T13:36:52Z</time>
      </trkpt>
      <trkpt lat="46.86472" lon="-1.48726">
        <ele>40.04</ele>
        <time>2015-11-02T13:37:19Z</time>
      </trkpt>
      <trkpt lat="46.86457" lon="-1.48741">
        <ele>42.31</ele>
        <time>2015-11-02T13:37:27Z</time>
      </trkpt>
      <trkpt lat="46.86442" lon="-1.48758">
        <ele>41.04</ele>
        <time>2015-11-02T13:37:35Z</time>
      </trkpt>
      <trkpt lat="46.86425" lon="-1.48769">
        <ele>39.55</ele>
        <time>2015-11-02T13:37:43Z</time>
      </trkpt>
      <trkpt lat="46.86406" lon="-1.4878">
        <ele>39.39</ele>
        <time>2015-11-02T13:37:52Z</time>
      </trkpt>
      <trkpt lat="46.86394" lon="-1.48805">
        <ele>39.12</ele>
        <time>2015-11-02T13:38:00Z</time>
      </trkpt>
      <trkpt lat="46.86384" lon="-1.48832">
        <ele>38.09</ele>
        <time>2015-11-02T13:38:07Z</time>
      </trkpt>
      <trkpt lat="46.86373" lon="-1.48857">
        <ele>35.62</ele>
        <time>2015-11-02T13:38:13Z</time>
      </trkpt>
      <trkpt lat="46.86363" lon="-1.48882">
        <ele>40.1</ele>
        <time>2015-11-02T13:38:19Z</time>
      </trkpt>
      <trkpt lat="46.86361" lon="-1.48912">
        <ele>42.36</ele>
        <time>2015-11-02T13:38:25Z</time>
      </trkpt>
      <trkpt lat="46.8636" lon="-1.48941">
        <ele>42.11</ele>
        <time>2015-11-02T13:38:31Z</time>
      </trkpt>
      <trkpt lat="46.8635" lon="-1.48966">
        <ele>42.99</ele>
        <time>2015-11-02T13:38:38Z</time>
      </trkpt>
      <trkpt lat="46.86332" lon="-1.48972">
        <ele>43.78</ele>
        <time>2015-11-02T13:38:44Z</time>
      </trkpt>
      <trkpt lat="46.86313" lon="-1.48976">
        <ele>45.27</ele>
        <time>2015-11-02T13:38:50Z</time>
      </trkpt>
      <trkpt lat="46.86293" lon="-1.48979">
        <ele>45.55</ele>
        <time>2015-11-02T13:38:56Z</time>
      </trkpt>
      <trkpt lat="46.86275" lon="-1.4897">
        <ele>46.39</ele>
        <time>2015-11-02T13:39:02Z</time>
      </trkpt>
      <trkpt lat="46.86257" lon="-1.48959">
        <ele>45.06</ele>
        <time>2015-11-02T13:39:08Z</time>
      </trkpt>
      <trkpt lat="46.86239" lon="-1.48948">
        <ele>45.62</ele>
        <time>2015-11-02T13:39:14Z</time>
      </trkpt>
      <trkpt lat="46.86221" lon="-1.48945">
        <ele>46.49</ele>
        <time>2015-11-02T13:39:20Z</time>
      </trkpt>
      <trkpt lat="46.86201" lon="-1.4894">
        <ele>47.9</ele>
        <time>2015-11-02T13:39:27Z</time>
      </trkpt>
      <trkpt lat="46.86184" lon="-1.48927">
        <ele>49.06</ele>
        <time>2015-11-02T13:39:33Z</time>
      </trkpt>
      <trkpt lat="46.86167" lon="-1.48914">
        <ele>50.45</ele>
        <time>2015-11-02T13:39:39Z</time>
      </trkpt>
      <trkpt lat="46.8615" lon="-1.489">
        <ele>51</ele>
        <time>2015-11-02T13:39:45Z</time>
      </trkpt>
      <trkpt lat="46.86132" lon="-1.48908">
        <ele>50.71</ele>
        <time>2015-11-02T13:39:52Z</time>
      </trkpt>
      <trkpt lat="46.86123" lon="-1.48936">
        <ele>50.27</ele>
        <time>2015-11-02T13:39:58Z</time>
      </trkpt>
      <trkpt lat="46.86117" lon="-1.48961">
        <ele>52.45</ele>
        <time>2015-11-02T13:40:04Z</time>
      </trkpt>
      <trkpt lat="46.86111" lon="-1.48987">
        <ele>53.52</ele>
        <time>2015-11-02T13:40:10Z</time>
      </trkpt>
      <trkpt lat="46.86107" lon="-1.49017">
        <ele>56.38</ele>
        <time>2015-11-02T13:40:17Z</time>
      </trkpt>
      <trkpt lat="46.86103" lon="-1.49044">
        <ele>56.06</ele>
        <time>2015-11-02T13:40:23Z</time>
      </trkpt>
      <trkpt lat="46.86097" lon="-1.49073">
        <ele>57.51</ele>
        <time>2015-11-02T13:40:29Z</time>
      </trkpt>
      <trkpt lat="46.86087" lon="-1.49098">
        <ele>57.52</ele>
        <time>2015-11-02T13:40:36Z</time>
      </trkpt>
      <trkpt lat="46.86067" lon="-1.49103">
        <ele>54.05</ele>
        <time>2015-11-02T13:40:43Z</time>
      </trkpt>
      <trkpt lat="46.86058" lon="-1.49131">
        <ele>53.16</ele>
        <time>2015-11-02T13:40:50Z</time>
      </trkpt>
      <trkpt lat="46.86047" lon="-1.49153">
        <ele>52.79</ele>
        <time>2015-11-02T13:40:56Z</time>
      </trkpt>
      <trkpt lat="46.86035" lon="-1.49173">
        <ele>53.21</ele>
        <time>2015-11-02T13:41:02Z</time>
      </trkpt>
      <trkpt lat="46.86018" lon="-1.49185">
        <ele>53.67</ele>
        <time>2015-11-02T13:41:08Z</time>
      </trkpt>
      <trkpt lat="46.86" lon="-1.49175">
        <ele>54.48</ele>
        <time>2015-11-02T13:41:15Z</time>
      </trkpt>
      <trkpt lat="46.85981" lon="-1.49169">
        <ele>53.54</ele>
        <time>2015-11-02T13:41:20Z</time>
      </trkpt>
      <trkpt lat="46.85958" lon="-1.49172">
        <ele>56.07</ele>
        <time>2015-11-02T13:41:25Z</time>
      </trkpt>
      <trkpt lat="46.85935" lon="-1.49183">
        <ele>54.28</ele>
        <time>2015-11-02T13:41:29Z</time>
      </trkpt>
      <trkpt lat="46.85915" lon="-1.49191">
        <ele>53.56</ele>
        <time>2015-11-02T13:41:32Z</time>
      </trkpt>
      <trkpt lat="46.8589" lon="-1.49199">
        <ele>51.47</ele>
        <time>2015-11-02T13:41:35Z</time>
      </trkpt>
      <trkpt lat="46.85872" lon="-1.492">
        <ele>51.39</ele>
        <time>2015-11-02T13:41:37Z</time>
      </trkpt>
      <trkpt lat="46.85849" lon="-1.49203">
        <ele>49.87</ele>
        <time>2015-11-02T13:41:39Z</time>
      </trkpt>
      <trkpt lat="46.8583" lon="-1.49202">
        <ele>48.74</ele>
        <time>2015-11-02T13:41:41Z</time>
      </trkpt>
      <trkpt lat="46.85811" lon="-1.49202">
        <ele>46.2</ele>
        <time>2015-11-02T13:41:43Z</time>
      </trkpt>
      <trkpt lat="46.85791" lon="-1.49196">
        <ele>44.57</ele>
        <time>2015-11-02T13:41:45Z</time>
      </trkpt>
      <trkpt lat="46.85771" lon="-1.4919">
        <ele>42.91</ele>
        <time>2015-11-02T13:41:47Z</time>
      </trkpt>
      <trkpt lat="46.85753" lon="-1.49182">
        <ele>42.25</ele>
        <time>2015-11-02T13:41:49Z</time>
      </trkpt>
      <trkpt lat="46.85738" lon="-1.49164">
        <ele>42.08</ele>
        <time>2015-11-02T13:41:51Z</time>
      </trkpt>
      <trkpt lat="46.85717" lon="-1.49142">
        <ele>41.91</ele>
        <time>2015-11-02T13:41:54Z</time>
      </trkpt>
      <trkpt lat="46.85696" lon="-1.49129">
        <ele>41.26</ele>
        <time>2015-11-02T13:41:57Z</time>
      </trkpt>
      <trkpt lat="46.85678" lon="-1.49118">
        <ele>41.81</ele>
        <time>2015-11-02T13:42:00Z</time>
      </trkpt>
      <trkpt lat="46.85657" lon="-1.49107">
        <ele>42.89</ele>
        <time>2015-11-02T13:42:04Z</time>
      </trkpt>
      <trkpt lat="46.85636" lon="-1.49097">
        <ele>43.77</ele>
        <time>2015-11-02T13:42:08Z</time>
      </trkpt>
      <trkpt lat="46.85614" lon="-1.4909">
        <ele>42.82</ele>
        <time>2015-11-02T13:42:12Z</time>
      </trkpt>
      <trkpt lat="46.85597" lon="-1.49081">
        <ele>41.75</ele>
        <time>2015-11-02T13:42:15Z</time>
      </trkpt>
      <trkpt lat="46.85579" lon="-1.49073">
        <ele>41.37</ele>
        <time>2015-11-02T13:42:18Z</time>
      </trkpt>
      <trkpt lat="46.8556" lon="-1.49061">
        <ele>42.8</ele>
        <time>2015-11-02T13:42:22Z</time>
      </trkpt>
      <trkpt lat="46.85543" lon="-1.4905">
        <ele>45.21</ele>
        <time>2015-11-02T13:42:27Z</time>
      </trkpt>
      <trkpt lat="46.85526" lon="-1.49041">
        <ele>45.72</ele>
        <time>2015-11-02T13:42:32Z</time>
      </trkpt>
      <trkpt lat="46.85509" lon="-1.49031">
        <ele>46.77</ele>
        <time>2015-11-02T13:42:37Z</time>
      </trkpt>
      <trkpt lat="46.8549" lon="-1.49022">
        <ele>47.4</ele>
        <time>2015-11-02T13:42:43Z</time>
      </trkpt>
      <trkpt lat="46.85472" lon="-1.49017">
        <ele>46.04</ele>
        <time>2015-11-02T13:42:48Z</time>
      </trkpt>
      <trkpt lat="46.85452" lon="-1.49013">
        <ele>44.31</ele>
        <time>2015-11-02T13:42:53Z</time>
      </trkpt>
      <trkpt lat="46.85434" lon="-1.4901">
        <ele>43.1</ele>
        <time>2015-11-02T13:42:58Z</time>
      </trkpt>
      <trkpt lat="46.85415" lon="-1.49005">
        <ele>42.09</ele>
        <time>2015-11-02T13:43:02Z</time>
      </trkpt>
      <trkpt lat="46.85395" lon="-1.49002">
        <ele>41.97</ele>
        <time>2015-11-02T13:43:06Z</time>
      </trkpt>
      <trkpt lat="46.85376" lon="-1.48996">
        <ele>41.08</ele>
        <time>2015-11-02T13:43:10Z</time>
      </trkpt>
      <trkpt lat="46.85358" lon="-1.48988">
        <ele>40.15</ele>
        <time>2015-11-02T13:43:14Z</time>
      </trkpt>
      <trkpt lat="46.85342" lon="-1.48973">
        <ele>40.07</ele>
        <time>2015-11-02T13:43:21Z</time>
      </trkpt>
      <trkpt lat="46.85326" lon="-1.4896">
        <ele>42.78</ele>
        <time>2015-11-02T13:43:47Z</time>
      </trkpt>
      <trkpt lat="46.85308" lon="-1.48948">
        <ele>43.29</ele>
        <time>2015-11-02T13:43:53Z</time>
      </trkpt>
      <trkpt lat="46.8529" lon="-1.48937">
        <ele>44.94</ele>
        <time>2015-11-02T13:43:59Z</time>
      </trkpt>
      <trkpt lat="46.85272" lon="-1.48925">
        <ele>46.51</ele>
        <time>2015-11-02T13:44:05Z</time>
      </trkpt>
      <trkpt lat="46.85251" lon="-1.48924">
        <ele>46.05</ele>
        <time>2015-11-02T13:44:12Z</time>
      </trkpt>
      <trkpt lat="46.85241" lon="-1.4895">
        <ele>46.78</ele>
        <time>2015-11-02T13:44:20Z</time>
      </trkpt>
      <trkpt lat="46.85234" lon="-1.48975">
        <ele>46.9</ele>
        <time>2015-11-02T13:44:27Z</time>
      </trkpt>
      <trkpt lat="46.85224" lon="-1.49">
        <ele>50.62</ele>
        <time>2015-11-02T13:44:35Z</time>
      </trkpt>
      <trkpt lat="46.85216" lon="-1.49025">
        <ele>51.92</ele>
        <time>2015-11-02T13:44:43Z</time>
      </trkpt>
      <trkpt lat="46.8521" lon="-1.49051">
        <ele>48.7</ele>
        <time>2015-11-02T13:44:50Z</time>
      </trkpt>
      <trkpt lat="46.85196" lon="-1.49072">
        <ele>50.13</ele>
        <time>2015-11-02T13:44:58Z</time>
      </trkpt>
      <trkpt lat="46.85176" lon="-1.49068">
        <ele>51.51</ele>
        <time>2015-11-02T13:45:05Z</time>
      </trkpt>
      <trkpt lat="46.85158" lon="-1.4906">
        <ele>53.21</ele>
        <time>2015-11-02T13:45:11Z</time>
      </trkpt>
      <trkpt lat="46.85139" lon="-1.49051">
        <ele>54</ele>
        <time>2015-11-02T13:45:17Z</time>
      </trkpt>
      <trkpt lat="46.8512" lon="-1.49042">
        <ele>54.99</ele>
        <time>2015-11-02T13:45:22Z</time>
      </trkpt>
      <trkpt lat="46.85101" lon="-1.49031">
        <ele>55.52</ele>
        <time>2015-11-02T13:45:27Z</time>
      </trkpt>
      <trkpt lat="46.85083" lon="-1.49023">
        <ele>55.06</ele>
        <time>2015-11-02T13:45:31Z</time>
      </trkpt>
      <trkpt lat="46.85063" lon="-1.49013">
        <ele>54.28</ele>
        <time>2015-11-02T13:45:35Z</time>
      </trkpt>
      <trkpt lat="46.85041" lon="-1.49">
        <ele>52.42</ele>
        <time>2015-11-02T13:45:39Z</time>
      </trkpt>
      <trkpt lat="46.85021" lon="-1.48989">
        <ele>50.57</ele>
        <time>2015-11-02T13:45:42Z</time>
      </trkpt>
      <trkpt lat="46.84998" lon="-1.48977">
        <ele>50.09</ele>
        <time>2015-11-02T13:45:45Z</time>
      </trkpt>
      <trkpt lat="46.84978" lon="-1.48968">
        <ele>50.03</ele>
        <time>2015-11-02T13:45:48Z</time>
      </trkpt>
      <trkpt lat="46.84957" lon="-1.48959">
        <ele>50.03</ele>
        <time>2015-11-02T13:45:52Z</time>
      </trkpt>
      <trkpt lat="46.84939" lon="-1.48953">
        <ele>50.59</ele>
        <time>2015-11-02T13:45:56Z</time>
      </trkpt>
      <trkpt lat="46.84919" lon="-1.48948">
        <ele>51.42</ele>
        <time>2015-11-02T13:46:01Z</time>
      </trkpt>
      <trkpt lat="46.84898" lon="-1.48948">
        <ele>52.01</ele>
        <time>2015-11-02T13:46:06Z</time>
      </trkpt>
      <trkpt lat="46.8488" lon="-1.48953">
        <ele>53.93</ele>
        <time>2015-11-02T13:46:11Z</time>
      </trkpt>
      <trkpt lat="46.84861" lon="-1.4895">
        <ele>54.21</ele>
        <time>2015-11-02T13:46:16Z</time>
      </trkpt>
      <trkpt lat="46.8484" lon="-1.48945">
        <ele>54.03</ele>
        <time>2015-11-02T13:46:21Z</time>
      </trkpt>
      <trkpt lat="46.8482" lon="-1.48941">
        <ele>54.03</ele>
        <time>2015-11-02T13:46:26Z</time>
      </trkpt>
      <trkpt lat="46.84808" lon="-1.48921">
        <ele>51.68</ele>
        <time>2015-11-02T13:46:34Z</time>
      </trkpt>
      <trkpt lat="46.84811" lon="-1.4889">
        <ele>50.19</ele>
        <time>2015-11-02T13:46:38Z</time>
      </trkpt>
      <trkpt lat="46.84814" lon="-1.48861">
        <ele>48.79</ele>
        <time>2015-11-02T13:46:42Z</time>
      </trkpt>
      <trkpt lat="46.84804" lon="-1.4883">
        <ele>47.2</ele>
        <time>2015-11-02T13:46:46Z</time>
      </trkpt>
      <trkpt lat="46.84797" lon="-1.48803">
        <ele>47.79</ele>
        <time>2015-11-02T13:46:50Z</time>
      </trkpt>
      <trkpt lat="46.84788" lon="-1.4878">
        <ele>50.4</ele>
        <time>2015-11-02T13:46:56Z</time>
      </trkpt>
      <trkpt lat="46.84791" lon="-1.48749">
        <ele>50.01</ele>
        <time>2015-11-02T13:47:01Z</time>
      </trkpt>
      <trkpt lat="46.84795" lon="-1.48722">
        <ele>50.49</ele>
        <time>2015-11-02T13:47:07Z</time>
      </trkpt>
      <trkpt lat="46.84786" lon="-1.48749">
        <ele>50.98</ele>
        <time>2015-11-02T13:47:26Z</time>
      </trkpt>
      <trkpt lat="46.84767" lon="-1.48764">
        <ele>50.52</ele>
        <time>2015-11-02T13:47:31Z</time>
      </trkpt>
      <trkpt lat="46.84754" lon="-1.48783">
        <ele>47.75</ele>
        <time>2015-11-02T13:47:37Z</time>
      </trkpt>
      <trkpt lat="46.84738" lon="-1.48804">
        <ele>50.1</ele>
        <time>2015-11-02T13:47:45Z</time>
      </trkpt>
      <trkpt lat="46.84719" lon="-1.48818">
        <ele>46.66</ele>
        <time>2015-11-02T13:47:52Z</time>
      </trkpt>
      <trkpt lat="46.84701" lon="-1.48825">
        <ele>47.8</ele>
        <time>2015-11-02T13:48:01Z</time>
      </trkpt>
      <trkpt lat="46.84683" lon="-1.48835">
        <ele>47.21</ele>
        <time>2015-11-02T13:48:06Z</time>
      </trkpt>
      <trkpt lat="46.84661" lon="-1.48838">
        <ele>46.54</ele>
        <time>2015-11-02T13:48:10Z</time>
      </trkpt>
      <trkpt lat="46.8464" lon="-1.48842">
        <ele>45.84</ele>
        <time>2015-11-02T13:48:13Z</time>
      </trkpt>
      <trkpt lat="46.8462" lon="-1.48853">
        <ele>41.89</ele>
        <time>2015-11-02T13:48:17Z</time>
      </trkpt>
      <trkpt lat="46.84604" lon="-1.48867">
        <ele>39.76</ele>
        <time>2015-11-02T13:48:20Z</time>
      </trkpt>
      <trkpt lat="46.84588" lon="-1.48884">
        <ele>38.51</ele>
        <time>2015-11-02T13:48:24Z</time>
      </trkpt>
      <trkpt lat="46.84573" lon="-1.48903">
        <ele>39.51</ele>
        <time>2015-11-02T13:48:29Z</time>
      </trkpt>
      <trkpt lat="46.84558" lon="-1.48918">
        <ele>38.1</ele>
        <time>2015-11-02T13:48:34Z</time>
      </trkpt>
    </trkseg>
  </trk>
</gpx>